»·PEaware :: UAL576 KABQ-KLAS

UAL576 :: KABQ-KLAS

FLIGHT INFORMATION

Flight Status: Arrived
Operator:
United Airlines
More flights by this operator :: More flights under this callsign
Pilot: Anonymous 8274 (8274)
Aircraft: BOEING 737-200
(B732)
More flights by this aircraft type
Origin: KABQ Albuquerque Intl Sunport
United States
Destination: KLAS McCarran Intl
United States
More flights between these airports :: More routes between these airports
Route: LARGO3 RSK J110 LRAIN J128 PGS KADDY3
File this flight plan on PilotEdge
Remarks:
Altitude:
(Current/Filed)
32,000ft
Speed:
(Current/Filed)
448kts
Departed: 05-Sep-19 05:27 PM
Arrived: 05-Sep-19 07:07 PM
Distance/Time
Traveled:
421nm/1:40
Distance/Time
To Go:
Arrived

Flight Plot

Page will automatically refresh every two minutes.

Flight plan parsing failed; only flown route is shown


Map Options




Map Legend


Flown Route
Filed Route
Departure Airport
Arrival Airport
Navaid (VOR, NDB)
Fix

Horizontal Profiles

Position Reports

Time Latitude Longitude Heading Altitude Ground
Speed
05-Sep-19 16:54 35.046901 -106.615887 4 5317ft 0kts
05-Sep-19 16:55 35.046901 -106.615887 4 5317ft 0kts
05-Sep-19 16:56 35.046901 -106.615887 4 5317ft 0kts
05-Sep-19 16:57 35.046901 -106.615887 4 5317ft 0kts
05-Sep-19 16:58 35.046901 -106.615887 4 5317ft 0kts
05-Sep-19 16:59 35.046901 -106.615887 4 5317ft 0kts
05-Sep-19 17:00 35.046901 -106.615887 4 5317ft 0kts
05-Sep-19 17:01 35.046901 -106.615887 4 5317ft 0kts
05-Sep-19 17:02 35.046901 -106.615887 4 5317ft 0kts
05-Sep-19 17:03 35.046901 -106.615887 4 5317ft 0kts
05-Sep-19 17:04 35.046901 -106.615887 4 5317ft 0kts
05-Sep-19 17:05 35.046901 -106.615887 4 5317ft 0kts
05-Sep-19 17:06 35.046901 -106.615887 4 5317ft 0kts
05-Sep-19 17:07 35.046896 -106.615887 4 5318ft 1kts
05-Sep-19 17:08 35.046386 -106.615871 307 5318ft 2kts
05-Sep-19 17:09 35.046359 -106.615678 254 5317ft 0kts
05-Sep-19 17:10 35.046359 -106.615678 254 5317ft 0kts
05-Sep-19 17:11 35.046359 -106.615678 254 5317ft 0kts
05-Sep-19 17:12 35.046380 -106.616403 269 5317ft 4kts
05-Sep-19 17:13 35.046394 -106.618315 271 5317ft 0kts
05-Sep-19 17:14 35.046394 -106.618315 271 5317ft 0kts
05-Sep-19 17:15 35.046387 -106.618620 262 5317ft 8kts
05-Sep-19 17:16 35.045567 -106.617085 90 5317ft 19kts
05-Sep-19 17:17 35.045776 -106.607988 90 5318ft 34kts
05-Sep-19 17:18 35.045836 -106.595733 88 5318ft 36kts
05-Sep-19 17:19 35.045763 -106.582815 90 5318ft 39kts
05-Sep-19 17:20 35.045140 -106.575727 174 5317ft 0kts
05-Sep-19 17:21 35.045140 -106.575727 174 5317ft 0kts
05-Sep-19 17:22 35.045140 -106.575727 174 5317ft 0kts
05-Sep-19 17:23 35.045140 -106.575727 174 5317ft 0kts
05-Sep-19 17:24 35.045140 -106.575727 174 5317ft 0kts
05-Sep-19 17:25 35.044070 -106.576622 270 5317ft 7kts
05-Sep-19 17:26 35.044297 -106.600655 268 5352ft 158kts
05-Sep-19 17:27 35.051200 -106.656314 282 6675ft 178kts
05-Sep-19 17:28 35.066308 -106.726507 282 7764ft 248kts
05-Sep-19 17:29 35.084425 -106.814194 283 10009ft 279kts
05-Sep-19 17:30 35.104829 -106.914683 289 11369ft 336kts
05-Sep-19 17:31 35.186392 -106.959367 6 13220ft 362kts
05-Sep-19 17:32 35.286440 -106.943046 8 15745ft 362kts
05-Sep-19 17:33 35.385784 -106.926561 8 18176ft 357kts
05-Sep-19 17:34 35.486802 -106.909911 8 19632ft 375kts
05-Sep-19 17:35 35.591705 -106.900709 351 21171ft 385kts
05-Sep-19 17:36 35.698185 -106.925102 349 22733ft 390kts
05-Sep-19 17:37 35.805696 -106.948299 353 24034ft 397kts
05-Sep-19 17:38 35.918875 -106.962129 354 24656ft 419kts
05-Sep-19 17:39 36.036486 -106.971583 357 25607ft 427kts
05-Sep-19 17:40 36.154638 -106.978610 350 26611ft 429kts
05-Sep-19 17:41 36.231925 -107.077111 285 27460ft 422kts
05-Sep-19 17:42 36.261397 -107.216614 283 28681ft 415kts
05-Sep-19 17:43 36.289841 -107.353656 283 29809ft 408kts
05-Sep-19 17:44 36.318741 -107.488207 292 30760ft 404kts
05-Sep-19 17:45 36.392346 -107.593247 313 31549ft 405kts
05-Sep-19 17:46 36.476114 -107.683322 319 32254ft 405kts
05-Sep-19 17:47 36.560073 -107.777959 302 32341ft 415kts
05-Sep-19 17:48 36.616725 -107.904681 306 32339ft 428kts
05-Sep-19 17:49 36.695003 -108.017104 308 32335ft 430kts
05-Sep-19 17:50 36.770379 -108.133428 307 32277ft 433kts
05-Sep-19 17:51 36.788547 -108.270101 240 32219ft 425kts
05-Sep-19 17:52 36.717336 -108.386655 250 32228ft 423kts
05-Sep-19 17:53 36.708863 -108.532690 266 32228ft 423kts
05-Sep-19 17:54 36.700361 -108.675909 264 32229ft 425kts
05-Sep-19 17:55 36.687761 -108.822699 262 32229ft 426kts
05-Sep-19 17:56 36.673204 -108.969455 262 32229ft 428kts
05-Sep-19 17:58 36.658339 -109.116602 262 32271ft 428kts
05-Sep-19 17:59 36.643942 -109.263621 262 32296ft 429kts
05-Sep-19 18:00 36.629962 -109.411005 262 32293ft 430kts
05-Sep-19 18:01 36.616122 -109.559084 262 32294ft 431kts
05-Sep-19 18:02 36.603348 -109.694623 262 32295ft 432kts
05-Sep-19 18:03 36.588991 -109.842856 262 32295ft 433kts
05-Sep-19 18:04 36.574066 -109.991586 261 32278ft 434kts
05-Sep-19 18:05 36.558742 -110.140826 261 32229ft 436kts
05-Sep-19 18:06 36.543025 -110.290143 261 32224ft 436kts
05-Sep-19 18:07 36.527073 -110.439808 261 32226ft 437kts
05-Sep-19 18:08 36.511225 -110.589380 261 32227ft 437kts
05-Sep-19 18:09 36.457123 -110.717922 229 32231ft 434kts
05-Sep-19 18:10 36.376164 -110.829140 229 32228ft 435kts
05-Sep-19 18:11 36.304817 -110.949880 236 32238ft 435kts
05-Sep-19 18:12 36.237143 -111.074583 234 32258ft 435kts
05-Sep-19 18:13 36.165862 -111.194611 233 32266ft 435kts
05-Sep-19 18:14 36.094443 -111.315562 233 32265ft 435kts
05-Sep-19 18:15 36.083319 -111.459197 273 32264ft 438kts
05-Sep-19 18:16 36.052043 -111.601371 253 32265ft 433kts
05-Sep-19 18:16 36.028451 -111.719598 255 32265ft 434kts
05-Sep-19 18:18 35.996580 -111.889305 255 32275ft 434kts
05-Sep-19 18:19 35.967570 -112.033987 254 32330ft 434kts
05-Sep-19 18:19 35.942234 -112.153771 253 32351ft 434kts
05-Sep-19 18:20 35.910976 -112.297734 253 32360ft 435kts
05-Sep-19 18:22 35.877009 -112.450426 253 32371ft 436kts
05-Sep-19 18:22 35.850125 -112.570681 253 32380ft 436kts
05-Sep-19 18:23 35.815154 -112.711785 249 32385ft 437kts
05-Sep-19 18:25 35.773684 -112.879441 253 32335ft 440kts
05-Sep-19 18:25 35.748829 -113.001872 254 32244ft 444kts
05-Sep-19 18:26 35.717546 -113.148845 252 32215ft 443kts
05-Sep-19 18:27 35.682847 -113.294312 251 32219ft 442kts
05-Sep-19 18:28 35.648838 -113.439360 252 32219ft 442kts
05-Sep-19 18:29 35.615019 -113.584488 252 31658ft 441kts
05-Sep-19 18:30 35.618701 -113.727252 300 29159ft 441kts
05-Sep-19 18:31 35.670352 -113.854724 273 25003ft 411kts
05-Sep-19 18:32 35.685774 -113.989561 277 21078ft 390kts
05-Sep-19 18:33 35.704441 -114.117688 279 17223ft 373kts
05-Sep-19 18:34 35.722739 -114.241461 279 15083ft 352kts
05-Sep-19 18:35 35.739070 -114.356693 279 12098ft 321kts
05-Sep-19 18:36 35.776440 -114.441286 332 11999ft 302kts
05-Sep-19 18:37 35.853469 -114.482580 336 10578ft 300kts
05-Sep-19 18:38 35.930206 -114.521422 336 9211ft 296kts
05-Sep-19 18:39 36.005987 -114.559285 336 8038ft 285kts
05-Sep-19 18:40 36.047831 -114.630458 293 7998ft 258kts
05-Sep-19 18:41 36.077417 -114.708217 292 7996ft 250kts
05-Sep-19 18:42 36.085680 -114.785566 240 8016ft 237kts
05-Sep-19 18:43 36.076012 -114.865373 277 6677ft 249kts
05-Sep-19 18:44 36.074964 -114.948194 260 5399ft 228kts
05-Sep-19 18:45 36.073802 -115.018460 265 4226ft 191kts
05-Sep-19 18:46 36.073327 -115.072396 267 3175ft 139kts
05-Sep-19 18:47 36.074252 -115.132067 267 3807ft 213kts
05-Sep-19 18:48 36.072765 -115.216812 266 5885ft 267kts
05-Sep-19 18:49 36.027693 -115.276667 202 7424ft 247kts
05-Sep-19 18:50 35.969678 -115.262143 110 7020ft 264kts
05-Sep-19 18:51 35.966491 -115.167513 92 7024ft 286kts
05-Sep-19 18:52 35.996255 -115.074260 61 7018ft 300kts
05-Sep-19 18:53 36.038318 -114.986609 60 6993ft 293kts
05-Sep-19 18:54 36.079547 -114.901187 60 6999ft 287kts
05-Sep-19 18:55 36.119771 -114.818718 60 6998ft 281kts
05-Sep-19 18:56 36.143358 -114.732618 107 7007ft 264kts
05-Sep-19 18:57 36.114580 -114.653811 156 6995ft 244kts
05-Sep-19 18:58 36.069834 -114.694380 249 6992ft 229kts
05-Sep-19 18:59 36.060250 -114.767868 267 6690ft 214kts
05-Sep-19 19:00 36.075863 -114.838572 266 5684ft 214kts
05-Sep-19 19:01 36.073036 -114.912019 265 5019ft 206kts
05-Sep-19 19:02 36.074673 -114.974652 265 4354ft 171kts
05-Sep-19 19:03 36.074129 -115.029828 266 3771ft 142kts
05-Sep-19 19:04 36.073411 -115.076829 265 2934ft 138kts
05-Sep-19 19:05 36.073670 -115.126316 265 2154ft 145kts
05-Sep-19 19:06 36.074370 -115.154434 298 2120ft 28kts
05-Sep-19 19:07 36.074771 -115.155329 305 2120ft 0kts
05-Sep-19 19:08 36.076200 -115.157252 320 2120ft 21kts
05-Sep-19 19:09 36.078023 -115.154870 89 2120ft 15kts
05-Sep-19 19:10 36.077776 -115.147175 95 2120ft 32kts
05-Sep-19 19:11 36.077491 -115.135054 89 2120ft 30kts
05-Sep-19 19:12 36.081299 -115.133794 359 2120ft 19kts
05-Sep-19 19:13 36.084055 -115.136699 233 2120ft 9kts
05-Sep-19 19:14 36.082835 -115.136864 139 2120ft 0kts

Navigation Log

Ident Type
Flight plan parsing failed, navigation log unavailable